createdAt,value
2022-10-04T00:00:25.506Z,11.40
2022-10-04T00:03:00.360Z,11.33
2022-10-04T00:05:31.718Z,11.33
2022-10-04T00:08:19.233Z,11.29
2022-10-04T00:10:47.693Z,11.27
2022-10-04T00:13:26.189Z,11.40
2022-10-04T00:15:54.491Z,11.35
2022-10-04T00:18:30.234Z,11.32
2022-10-04T00:21:05.265Z,11.33
2022-10-04T00:23:48.085Z,11.28
2022-10-04T00:27:09.810Z,11.22
2022-10-04T00:29:41.952Z,11.24
2022-10-04T00:32:47.305Z,11.30
2022-10-04T00:35:51.684Z,11.23
2022-10-04T00:38:28.397Z,11.19
2022-10-04T00:41:03.962Z,11.17
2022-10-04T00:43:39.602Z,11.15
2022-10-04T00:46:13.248Z,11.09
2022-10-04T00:48:47.508Z,11.04
2022-10-04T00:51:26.283Z,11.07
2022-10-04T00:54:05.577Z,11.07
2022-10-04T00:56:42.014Z,11.07
2022-10-04T00:59:33.064Z,11.15
2022-10-04T01:02:16.323Z,11.03
2022-10-04T01:04:50.865Z,11.03
2022-10-04T01:07:28.778Z,11.04
2022-10-04T01:10:01.776Z,11.04
2022-10-04T01:12:46.612Z,11.01
2022-10-04T01:15:23.701Z,10.96
2022-10-04T01:18:10.218Z,10.96
2022-10-04T01:20:49.427Z,10.97
2022-10-04T01:23:42.735Z,10.95
2022-10-04T01:26:40.369Z,10.97
2022-10-04T01:29:13.555Z,10.95
2022-10-04T01:31:45.159Z,10.96
2022-10-04T01:34:16.600Z,11.01
2022-10-04T01:36:47.200Z,11.03
2022-10-04T01:39:19.137Z,11.07
2022-10-04T01:41:54.701Z,11.05
2022-10-04T01:44:32.593Z,11.01
2022-10-04T01:47:06.505Z,10.91
2022-10-04T01:49:39.497Z,10.92
2022-10-04T01:52:16.066Z,10.88
2022-10-04T01:54:49.038Z,10.85
2022-10-04T01:57:20.717Z,10.90
2022-10-04T01:59:56.213Z,10.94
2022-10-04T02:02:34.723Z,10.90
2022-10-04T02:05:07.907Z,10.81
2022-10-04T02:07:38.830Z,10.87
2022-10-04T02:10:13.388Z,10.86
2022-10-04T02:12:46.099Z,10.84
2022-10-04T02:15:16.008Z,10.78
2022-10-04T02:17:45.658Z,10.81
2022-10-04T02:20:21.482Z,10.85
2022-10-04T02:22:53.453Z,10.80
2022-10-04T02:25:24.473Z,10.77
2022-10-04T02:27:55.583Z,10.75
2022-10-04T02:30:24.961Z,10.71
2022-10-04T02:32:58.282Z,10.70
2022-10-04T02:35:30.646Z,10.70
2022-10-04T02:38:14.745Z,10.77
2022-10-04T02:40:51.321Z,10.80
2022-10-04T02:43:25.314Z,10.82
2022-10-04T02:46:00.174Z,10.77
2022-10-04T02:48:38.420Z,10.84
2022-10-04T02:51:28.431Z,10.87
2022-10-04T02:54:08.323Z,10.89
2022-10-04T02:56:38.549Z,10.69
2022-10-04T02:59:08.667Z,10.80
2022-10-04T03:01:51.853Z,10.93
2022-10-04T03:04:24.203Z,10.90
2022-10-04T03:06:54.244Z,10.89
2022-10-04T03:09:29.719Z,10.77
2022-10-04T03:12:00.170Z,10.75
2022-10-04T03:14:30.009Z,10.76
2022-10-04T03:17:03.915Z,10.79
2022-10-04T03:19:35.010Z,10.90
2022-10-04T03:22:08.112Z,10.84
2022-10-04T03:24:40.936Z,10.81
2022-10-04T03:27:17.767Z,10.77
2022-10-04T03:29:46.320Z,10.75
2022-10-04T03:32:17.237Z,10.70
2022-10-04T03:34:54.169Z,10.73
2022-10-04T03:37:22.702Z,10.90
2022-10-04T03:39:53.791Z,10.87
2022-10-04T03:42:26.577Z,10.82
2022-10-04T03:44:58.183Z,10.74
2022-10-04T03:47:30.861Z,10.76
2022-10-04T03:50:04.374Z,10.78
2022-10-04T03:52:37.859Z,10.76
2022-10-04T03:55:09.546Z,10.73
2022-10-04T03:57:39.364Z,10.75
2022-10-04T04:00:09.123Z,10.85
2022-10-04T04:02:49.023Z,10.83
2022-10-04T04:05:24.135Z,10.81
2022-10-04T04:08:08.288Z,10.79
2022-10-04T04:10:40.336Z,10.76
2022-10-04T04:13:24.155Z,10.77
2022-10-04T04:15:55.241Z,10.81
2022-10-04T04:18:28.307Z,10.74
2022-10-04T04:21:00.365Z,10.68
2022-10-04T04:23:32.814Z,10.58
2022-10-04T04:26:19.739Z,10.66
2022-10-04T04:28:52.415Z,10.65
2022-10-04T04:31:25.271Z,10.73
2022-10-04T04:33:59.365Z,10.78
2022-10-04T04:36:29.873Z,10.76
2022-10-04T04:39:27.452Z,10.79
2022-10-04T04:41:55.662Z,10.86
2022-10-04T04:44:25.897Z,10.87
2022-10-04T04:47:00.674Z,10.81
2022-10-04T04:49:31.418Z,10.78
2022-10-04T04:52:00.101Z,10.76
2022-10-04T04:54:29.214Z,10.81
2022-10-04T04:56:58.426Z,10.88
2022-10-04T04:59:29.109Z,10.85
2022-10-04T05:01:57.407Z,10.74
2022-10-04T05:04:26.284Z,10.80
2022-10-04T05:07:04.873Z,10.78
2022-10-04T05:09:36.220Z,10.83
2022-10-04T05:12:10.649Z,10.87
2022-10-04T05:14:46.869Z,10.89
2022-10-04T05:17:21.390Z,10.86
2022-10-04T05:19:50.243Z,10.82
2022-10-04T05:22:23.852Z,10.80
2022-10-04T05:24:57.856Z,10.74
2022-10-04T05:27:33.527Z,10.69
2022-10-04T05:30:09.833Z,10.74
2022-10-04T05:32:55.133Z,10.69
2022-10-04T05:35:24.419Z,10.67
2022-10-04T05:38:02.084Z,10.80
2022-10-04T05:40:48.089Z,10.72
2022-10-04T05:43:29.605Z,10.69
2022-10-04T05:46:25.262Z,10.66
2022-10-04T05:48:57.155Z,10.64
2022-10-04T05:51:29.209Z,10.65
2022-10-04T05:54:01.300Z,10.67
2022-10-04T05:57:09.594Z,10.76
2022-10-04T06:00:04.192Z,10.78
2022-10-04T06:03:29.760Z,10.80
2022-10-04T06:06:05.626Z,10.78
2022-10-04T06:08:51.644Z,10.72
2022-10-04T06:11:34.856Z,10.70
2022-10-04T06:14:54.876Z,10.77
2022-10-04T06:18:08.932Z,10.82
2022-10-04T06:21:25.164Z,10.84
2022-10-04T06:24:00.476Z,10.92
2022-10-04T06:26:36.339Z,10.94
2022-10-04T06:29:11.274Z,10.98
2022-10-04T06:32:20.475Z,10.95
2022-10-04T06:35:35.087Z,11.04
2022-10-04T06:38:35.228Z,11.15
2022-10-04T06:41:22.049Z,11.19
2022-10-04T06:44:14.075Z,11.24
2022-10-04T06:46:48.996Z,11.29
2022-10-04T06:49:35.922Z,11.36
2022-10-04T06:52:43.094Z,11.36
2022-10-04T06:55:50.386Z,11.31
2022-10-04T06:59:03.026Z,11.39
2022-10-04T07:01:32.994Z,11.45
2022-10-04T07:04:18.815Z,11.42
2022-10-04T07:06:53.755Z,11.49
2022-10-04T07:09:28.045Z,11.53
2022-10-04T07:12:08.460Z,11.53
2022-10-04T07:14:44.340Z,11.58
2022-10-04T07:17:19.886Z,11.70
2022-10-04T07:19:50.739Z,11.70
2022-10-04T07:22:28.392Z,11.73
2022-10-04T07:25:15.578Z,11.87
2022-10-04T07:28:14.831Z,11.88
2022-10-04T07:30:49.118Z,11.94
2022-10-04T07:33:24.195Z,11.88
2022-10-04T07:36:01.911Z,11.95
2022-10-04T07:38:33.054Z,11.99
2022-10-04T07:41:11.903Z,12.06
2022-10-04T07:43:51.449Z,12.07
2022-10-04T07:46:44.288Z,12.12
2022-10-04T07:49:17.234Z,12.18
2022-10-04T07:52:13.489Z,12.16
2022-10-04T07:54:48.437Z,12.24
2022-10-04T07:57:29.919Z,12.27
2022-10-04T08:00:05.677Z,12.32
2022-10-04T08:02:58.865Z,12.38
2022-10-04T08:05:35.935Z,12.41
2022-10-04T08:08:40.330Z,12.40
2022-10-04T08:11:24.087Z,12.51
2022-10-04T08:14:05.945Z,12.59
2022-10-04T08:16:38.589Z,12.64
2022-10-04T08:19:28.361Z,12.70
2022-10-04T08:22:03.653Z,12.75
2022-10-04T08:24:40.430Z,12.86
2022-10-04T08:27:38.048Z,12.96
2022-10-04T08:30:13.701Z,13.01
2022-10-04T08:33:07.103Z,13.05
2022-10-04T08:35:38.171Z,13.14
2022-10-04T08:38:24.738Z,13.24
2022-10-04T08:41:56.649Z,13.37
2022-10-04T08:45:12.165Z,13.47
2022-10-04T08:48:33.550Z,13.62
2022-10-04T08:51:55.100Z,13.74
2022-10-04T08:55:04.499Z,13.86
2022-10-04T08:58:06.244Z,14.05
2022-10-04T09:01:03.990Z,14.13
2022-10-04T09:04:41.518Z,14.24
2022-10-04T09:08:23.885Z,14.36
2022-10-04T09:11:10.453Z,14.43
2022-10-04T09:13:50.138Z,14.58
2022-10-04T09:16:20.325Z,14.69
2022-10-04T09:19:02.312Z,14.85
2022-10-04T09:21:51.823Z,15.03
2022-10-04T09:25:01.952Z,15.00
2022-10-04T09:28:24.908Z,15.09
2022-10-04T09:31:09.312Z,15.25
2022-10-04T09:34:02.218Z,15.37
2022-10-04T09:37:18.849Z,15.51
2022-10-04T09:40:51.824Z,15.58
2022-10-04T09:44:17.436Z,15.70
2022-10-04T09:47:19.339Z,15.88
2022-10-04T09:50:26.491Z,16.03
2022-10-04T09:53:21.230Z,16.17
2022-10-04T09:56:30.952Z,16.25
2022-10-04T09:59:38.596Z,16.35
2022-10-04T10:03:15.762Z,16.47
2022-10-04T10:06:03.284Z,16.62
2022-10-04T10:08:45.163Z,16.64
2022-10-04T10:11:42.234Z,16.71
2022-10-04T10:14:34.580Z,16.73
2022-10-04T10:17:14.625Z,16.79
2022-10-04T10:20:17.319Z,16.89
2022-10-04T10:23:49.465Z,16.97
2022-10-04T10:27:03.844Z,17.02
2022-10-04T10:30:25.995Z,17.13
2022-10-04T10:33:42.547Z,17.27
2022-10-04T10:36:36.435Z,17.40
2022-10-04T10:39:38.881Z,17.55
2022-10-04T10:42:28.944Z,17.70
2022-10-04T10:45:19.772Z,17.78
2022-10-04T10:48:01.590Z,17.93
2022-10-04T10:51:03.687Z,18.00
2022-10-04T10:54:21.310Z,18.08
2022-10-04T10:57:01.014Z,18.20
2022-10-04T11:00:20.053Z,18.29
2022-10-04T11:03:32.790Z,18.33
2022-10-04T11:06:51.534Z,18.36
2022-10-04T11:09:48.480Z,18.51
2022-10-04T11:12:56.824Z,18.54
2022-10-04T11:16:16.311Z,18.58
2022-10-04T11:19:23.457Z,18.70
2022-10-04T11:22:32.711Z,18.74
2022-10-04T11:25:54.638Z,18.79
2022-10-04T11:28:37.698Z,18.92
2022-10-04T11:31:45.484Z,18.92
2022-10-04T11:34:51.745Z,18.95
2022-10-04T11:37:32.405Z,18.99
2022-10-04T11:40:23.112Z,19.05
2022-10-04T11:43:18.288Z,19.10
2022-10-04T11:46:12.432Z,19.12
2022-10-04T11:49:02.486Z,19.16
2022-10-04T11:52:02.568Z,19.22
2022-10-04T11:55:20.443Z,19.33
2022-10-04T11:57:55.565Z,19.39
2022-10-04T12:00:25.555Z,19.41
2022-10-04T12:03:34.780Z,19.42
2022-10-04T12:06:27.360Z,19.49
2022-10-04T12:09:13.765Z,19.46
2022-10-04T12:12:29.233Z,19.51
2022-10-04T12:15:39.446Z,19.64
2022-10-04T12:18:41.926Z,19.71
2022-10-04T12:21:41.524Z,19.77
2022-10-04T12:24:59.450Z,19.73
2022-10-04T12:27:53.794Z,19.77
2022-10-04T12:30:36.726Z,19.84
2022-10-04T12:33:17.047Z,19.88
2022-10-04T12:36:03.686Z,19.83
2022-10-04T12:39:05.216Z,19.84
2022-10-04T12:41:47.189Z,19.85
2022-10-04T12:44:35.076Z,19.86
2022-10-04T12:47:48.175Z,19.81
2022-10-04T12:50:28.659Z,19.89
2022-10-04T12:53:10.894Z,19.98
2022-10-04T12:56:10.263Z,20.03
2022-10-04T12:59:01.556Z,20.09
2022-10-04T13:01:43.264Z,19.99
2022-10-04T13:04:29.192Z,20.04
2022-10-04T13:07:26.532Z,19.99
2022-10-04T13:10:25.875Z,19.94
2022-10-04T13:13:36.083Z,19.96
2022-10-04T13:19:17.560Z,19.97
2022-10-04T13:22:51.283Z,20.00
2022-10-04T13:25:52.147Z,19.96
2022-10-04T13:28:31.863Z,20.00
2022-10-04T13:31:07.383Z,20.04
2022-10-04T13:33:47.048Z,20.01
2022-10-04T13:36:21.424Z,19.96
2022-10-04T13:39:33.419Z,19.93
2022-10-04T13:42:26.700Z,19.96
2022-10-04T13:45:17.730Z,19.87
2022-10-04T13:48:09.255Z,19.86
2022-10-04T13:50:58.839Z,19.86
2022-10-04T13:53:59.714Z,19.87
2022-10-04T13:56:59.378Z,19.86
2022-10-04T13:59:41.906Z,19.83
2022-10-04T14:03:00.326Z,19.88
2022-10-04T14:06:22.497Z,19.80
2022-10-04T14:09:26.858Z,19.77
2022-10-04T14:12:48.829Z,19.79
2022-10-04T14:16:02.439Z,19.81
2022-10-04T14:19:24.724Z,19.81
2022-10-04T14:22:26.699Z,19.83
2022-10-04T14:25:46.931Z,19.87
2022-10-04T14:28:44.437Z,19.91
2022-10-04T14:31:38.197Z,19.91
2022-10-04T14:34:40.938Z,19.87
2022-10-04T14:37:39.614Z,19.88
2022-10-04T14:40:45.621Z,19.79
2022-10-04T14:43:49.214Z,19.77
2022-10-04T14:46:24.802Z,19.74
2022-10-04T14:49:11.533Z,19.77
2022-10-04T14:52:08.286Z,19.75
2022-10-04T14:54:52.381Z,19.75
2022-10-04T14:57:40.099Z,19.81
2022-10-04T15:00:18.730Z,19.83
2022-10-04T15:03:14.443Z,19.89
2022-10-04T15:06:21.285Z,19.89
2022-10-04T15:09:12.172Z,19.89
2022-10-04T15:12:02.370Z,19.89
2022-10-04T15:14:42.173Z,19.86
2022-10-04T15:17:25.806Z,19.86
2022-10-04T15:20:20.029Z,19.80
2022-10-04T15:22:53.998Z,19.80
2022-10-04T15:25:42.514Z,19.72
2022-10-04T15:28:46.565Z,19.60
2022-10-04T15:31:23.578Z,19.57
2022-10-04T15:34:05.897Z,19.55
2022-10-04T15:37:04.804Z,19.47
2022-10-04T15:40:01.827Z,19.45
2022-10-04T15:42:35.560Z,19.41
2022-10-04T15:45:48.733Z,19.33
2022-10-04T15:48:38.444Z,19.30
2022-10-04T15:51:16.642Z,19.32
2022-10-04T15:54:06.196Z,19.29
2022-10-04T15:56:50.956Z,19.23
2022-10-04T15:59:53.422Z,19.17
2022-10-04T16:02:53.353Z,19.23
2022-10-04T16:05:39.409Z,19.22
2022-10-04T16:08:35.603Z,19.14
2022-10-04T16:11:35.234Z,19.14
2022-10-04T16:14:26.391Z,19.07
2022-10-04T16:17:31.995Z,19.01
2022-10-04T16:20:52.416Z,18.99
2022-10-04T16:23:33.358Z,19.01
2022-10-04T16:26:04.860Z,18.99
2022-10-04T16:29:15.993Z,18.98
2022-10-04T16:32:03.189Z,18.95
2022-10-04T16:34:58.213Z,18.93
2022-10-04T16:37:38.492Z,18.92
2022-10-04T16:40:33.450Z,18.89
2022-10-04T16:43:07.558Z,18.85
2022-10-04T16:46:04.941Z,18.79
2022-10-04T16:48:50.011Z,18.74
2022-10-04T16:52:03.354Z,18.59
2022-10-04T16:55:26.142Z,18.52
2022-10-04T16:58:52.571Z,18.37
2022-10-04T17:02:17.218Z,18.26
2022-10-04T17:05:19.237Z,18.17
2022-10-04T17:08:21.352Z,18.12
2022-10-04T17:11:38.661Z,18.01
2022-10-04T17:14:46.333Z,17.93
2022-10-04T17:17:24.664Z,17.90
2022-10-04T17:20:03.314Z,17.79
2022-10-04T17:22:57.840Z,17.69
2022-10-04T17:25:34.344Z,17.62
2022-10-04T17:28:21.413Z,17.48
2022-10-04T17:31:00.051Z,17.47
2022-10-04T17:33:39.003Z,17.42
2022-10-04T17:36:39.667Z,17.25
2022-10-04T17:39:27.459Z,17.19
2022-10-04T17:42:10.634Z,17.12
2022-10-04T17:45:02.605Z,17.08
2022-10-04T17:47:51.464Z,17.04
2022-10-04T17:50:46.044Z,17.01
2022-10-04T17:53:39.160Z,16.97
2022-10-04T17:56:11.638Z,16.93
2022-10-04T17:58:45.600Z,16.91
2022-10-04T18:01:19.256Z,16.89
2022-10-04T18:03:54.759Z,16.88
2022-10-04T18:06:34.300Z,16.85
2022-10-04T18:09:11.699Z,16.80
2022-10-04T18:11:47.185Z,16.74
2022-10-04T18:14:46.533Z,16.72
2022-10-04T18:17:32.906Z,16.68
2022-10-04T18:20:27.744Z,16.67
2022-10-04T18:23:02.319Z,16.68
2022-10-04T18:25:33.994Z,16.60
2022-10-04T18:28:12.571Z,16.54
2022-10-04T18:30:59.057Z,16.52
2022-10-04T18:33:47.117Z,16.44
2022-10-04T18:36:18.529Z,16.37
2022-10-04T18:39:01.673Z,16.43
2022-10-04T18:41:46.013Z,16.41
2022-10-04T18:44:17.370Z,16.41
2022-10-04T18:46:51.231Z,16.44
2022-10-04T18:49:24.656Z,16.39
2022-10-04T18:52:04.652Z,16.35
2022-10-04T18:54:48.391Z,16.35
2022-10-04T18:57:33.420Z,16.33
2022-10-04T19:00:28.279Z,16.34
2022-10-04T19:03:06.063Z,16.27
2022-10-04T19:05:44.277Z,16.23
2022-10-04T19:08:31.771Z,16.17
2022-10-04T19:11:06.246Z,16.15
2022-10-04T19:13:44.953Z,16.10
2022-10-04T19:16:23.608Z,16.08
2022-10-04T19:19:07.302Z,16.09
2022-10-04T19:21:48.175Z,16.07
2022-10-04T19:24:46.038Z,16.04
2022-10-04T19:27:27.077Z,15.98
2022-10-04T19:30:16.192Z,15.93
2022-10-04T19:33:00.441Z,15.87
2022-10-04T19:35:50.855Z,15.86
2022-10-04T19:38:44.672Z,15.81
2022-10-04T19:41:21.708Z,15.78
2022-10-04T19:44:00.196Z,15.80
2022-10-04T19:46:41.640Z,15.71
2022-10-04T19:49:21.470Z,15.66
2022-10-04T19:51:55.785Z,15.64
2022-10-04T19:54:32.329Z,15.58
2022-10-04T19:57:04.239Z,15.51
2022-10-04T19:59:41.076Z,15.48
2022-10-04T20:02:11.939Z,15.54
2022-10-04T20:04:42.188Z,15.59
2022-10-04T20:07:23.388Z,15.62
2022-10-04T20:09:55.527Z,15.53
2022-10-04T20:12:35.644Z,15.58
2022-10-04T20:19:39.694Z,15.41
2022-10-04T20:22:31.862Z,15.41
2022-10-04T20:25:00.761Z,15.40
2022-10-04T20:28:03.460Z,15.36
2022-10-04T20:30:52.776Z,15.31
2022-10-04T20:33:51.334Z,15.30
2022-10-04T20:36:52.876Z,15.31
2022-10-04T20:40:00.717Z,15.30
2022-10-04T20:42:38.946Z,15.27
2022-10-04T20:45:27.636Z,15.27
2022-10-04T20:47:58.113Z,15.36
2022-10-04T20:50:40.685Z,15.36
2022-10-04T20:53:19.713Z,15.25
2022-10-04T20:55:49.581Z,15.14
2022-10-04T20:58:32.486Z,15.11
2022-10-04T21:01:16.138Z,15.01
2022-10-04T21:03:44.246Z,15.02
2022-10-04T21:06:12.898Z,15.09
2022-10-04T21:08:42.486Z,15.10
2022-10-04T21:11:23.021Z,15.09
2022-10-04T21:13:58.351Z,15.08
2022-10-04T21:16:46.097Z,15.03
2022-10-04T21:19:45.050Z,14.98
2022-10-04T21:22:40.498Z,14.95
2022-10-04T21:25:33.381Z,14.93
2022-10-04T21:28:33.718Z,14.90
2022-10-04T21:31:03.856Z,14.86
2022-10-04T21:33:36.608Z,14.85
2022-10-04T21:36:05.951Z,14.76
2022-10-04T21:38:34.010Z,14.69
2022-10-04T21:41:03.599Z,14.68
2022-10-04T21:43:31.802Z,14.64
2022-10-04T21:46:00.304Z,14.72
2022-10-04T21:48:28.466Z,14.75
2022-10-04T21:50:56.951Z,14.74
2022-10-04T21:53:25.016Z,14.81
2022-10-04T21:55:53.018Z,14.75
2022-10-04T21:58:22.538Z,14.72
2022-10-04T22:00:50.906Z,14.71
2022-10-04T22:03:19.169Z,14.71
2022-10-04T22:05:47.206Z,14.69
2022-10-04T22:08:15.202Z,14.66
2022-10-04T22:10:44.025Z,14.62
2022-10-04T22:13:12.093Z,14.65
2022-10-04T22:15:41.859Z,14.65
2022-10-04T22:18:09.918Z,14.61
2022-10-04T22:20:38.787Z,14.55
2022-10-04T22:23:15.415Z,14.51
2022-10-04T22:25:43.506Z,14.47
2022-10-04T22:28:20.327Z,14.41
2022-10-04T22:30:50.477Z,14.41
2022-10-04T22:33:32.038Z,14.45
2022-10-04T22:36:06.401Z,14.41
2022-10-04T22:38:34.441Z,14.39
2022-10-04T22:41:02.713Z,14.32
2022-10-04T22:43:30.719Z,14.26
2022-10-04T22:46:00.171Z,14.11
2022-10-04T22:48:28.955Z,14.09
2022-10-04T22:50:57.010Z,14.09
2022-10-04T22:53:25.460Z,14.13
2022-10-04T22:55:55.868Z,14.16
2022-10-04T22:58:24.103Z,14.19
2022-10-04T23:00:52.189Z,14.20
2022-10-04T23:03:30.729Z,14.19
2022-10-04T23:05:59.335Z,14.15
2022-10-04T23:08:27.498Z,14.17
2022-10-04T23:10:56.427Z,14.23
2022-10-04T23:13:25.432Z,14.22
2022-10-04T23:15:56.955Z,14.27
2022-10-04T23:18:27.633Z,14.17
2022-10-04T23:21:00.333Z,14.21
2022-10-04T23:23:31.532Z,14.21
2022-10-04T23:25:59.620Z,14.24
2022-10-04T23:28:27.785Z,14.26
2022-10-04T23:31:07.107Z,14.34
2022-10-04T23:33:36.556Z,14.34
2022-10-04T23:36:06.423Z,14.38
2022-10-04T23:38:34.623Z,14.35
2022-10-04T23:41:03.083Z,14.32
2022-10-04T23:43:31.914Z,14.37
2022-10-04T23:46:00.360Z,14.37
2022-10-04T23:48:31.918Z,14.39
2022-10-04T23:51:01.655Z,14.45
2022-10-04T23:53:33.610Z,14.34
2022-10-04T23:56:06.021Z,14.39
2022-10-04T23:58:38.465Z,14.38
